SAS909 EKCH-KEWR
Flight info
| Callsign | SAS909 |
|---|---|
| Flight time | N/A |
| Altitude | 38000 |
| Route | GOLGA DCT KRM DCT VALDI/M081F380 DCT 62N010W 61N020W 60N030W 58N040W 5430N05000W DCT PELTU/N0470F380 DCT DANOL DCT ENE DCT PWL DCT IGN DCT FLOSI FLOSI4 |
| Aircraft | A333/H-SDE3GHIJ2J3J5M1RVWXY/LB2D1 |
Departure
| Time | N/A |
|---|---|
| Airport | Copenhagen Kastrup Airport (EKCH) |
Arrival
| Time | 2026-04-22 18:14 |
|---|---|
| Airport | Newark Liberty International Airport (KEWR) |
| Time | Latitude | Longitude | Altitude | Speed | Heading |
|---|---|---|---|---|---|
| 2026-04-22 15:09 | 54.21075 | -50.68216 | 38087 ft | 418 kts | 229° |
| 2026-04-22 15:10 | 54.17588 | -50.76293 | 38106 ft | 427 kts | 229° |
| 2026-04-22 15:10 | 54.14034 | -50.84519 | 38094 ft | 431 kts | 229° |
| 2026-04-22 15:11 | 54.10483 | -50.92722 | 38088 ft | 429 kts | 229° |
| 2026-04-22 15:11 | 54.06934 | -51.00892 | 38091 ft | 429 kts | 229° |
| 2026-04-22 15:12 | 54.03377 | -51.09045 | 38089 ft | 429 kts | 229° |
| 2026-04-22 15:12 | 53.99816 | -51.17181 | 38092 ft | 429 kts | 229° |
| 2026-04-22 15:13 | 53.96271 | -51.25253 | 38092 ft | 428 kts | 228° |
| 2026-04-22 15:13 | 53.92711 | -51.33325 | 38088 ft | 426 kts | 228° |
| 2026-04-22 15:14 | 53.89153 | -51.41369 | 38086 ft | 426 kts | 228° |
| 2026-04-22 15:14 | 53.85593 | -51.49403 | 38086 ft | 426 kts | 228° |
| 2026-04-22 15:15 | 53.82030 | -51.57421 | 38088 ft | 426 kts | 228° |
| 2026-04-22 15:15 | 53.78458 | -51.65423 | 38089 ft | 425 kts | 227° |
| 2026-04-22 15:16 | 53.74893 | -51.73389 | 38086 ft | 425 kts | 227° |
| 2026-04-22 15:16 | 53.71323 | -51.81337 | 38086 ft | 425 kts | 227° |
| 2026-04-22 15:17 | 53.67750 | -51.89269 | 38083 ft | 425 kts | 227° |
| 2026-04-22 15:17 | 53.64171 | -51.97189 | 38089 ft | 425 kts | 227° |
| 2026-04-22 15:18 | 53.60590 | -52.05092 | 38100 ft | 423 kts | 226° |
| 2026-04-22 15:18 | 53.57023 | -52.12941 | 38098 ft | 421 kts | 226° |
| 2026-04-22 15:19 | 53.53459 | -52.20753 | 38108 ft | 421 kts | 226° |
| 2026-04-22 15:19 | 53.49887 | -52.28553 | 38109 ft | 421 kts | 226° |
| 2026-04-22 15:20 | 53.46314 | -52.36338 | 38133 ft | 421 kts | 225° |
| 2026-04-22 15:20 | 53.42733 | -52.44118 | 38100 ft | 421 kts | 225° |
| 2026-04-22 15:21 | 53.39146 | -52.51886 | 38100 ft | 421 kts | 225° |
| 2026-04-22 15:21 | 53.35554 | -52.59641 | 38101 ft | 421 kts | 225° |
| 2026-04-22 15:22 | 53.31957 | -52.67382 | 38102 ft | 421 kts | 225° |
| 2026-04-22 15:22 | 53.28354 | -52.75110 | 38121 ft | 421 kts | 225° |
| 2026-04-22 15:23 | 53.24768 | -52.82778 | 38102 ft | 422 kts | 225° |
| 2026-04-22 15:23 | 53.21127 | -52.90542 | 38103 ft | 422 kts | 225° |
| 2026-04-22 15:24 | 53.17529 | -52.98192 | 38105 ft | 422 kts | 225° |
| 2026-04-22 15:24 | 53.13902 | -53.05878 | 38119 ft | 422 kts | 225° |
| 2026-04-22 15:25 | 53.10268 | -53.13554 | 38123 ft | 422 kts | 224° |
| 2026-04-22 15:25 | 53.06630 | -53.21216 | 38121 ft | 422 kts | 224° |
| 2026-04-22 15:26 | 53.02986 | -53.28869 | 38120 ft | 422 kts | 224° |
| 2026-04-22 15:26 | 52.99339 | -53.36505 | 38116 ft | 422 kts | 224° |
| 2026-04-22 15:27 | 52.95686 | -53.44128 | 38121 ft | 422 kts | 224° |
| 2026-04-22 15:27 | 52.92031 | -53.51733 | 38121 ft | 422 kts | 224° |
| 2026-04-22 15:28 | 52.88370 | -53.59328 | 38128 ft | 422 kts | 224° |
| 2026-04-22 15:28 | 52.84707 | -53.66905 | 38126 ft | 422 kts | 224° |
| 2026-04-22 15:29 | 52.81036 | -53.74475 | 38130 ft | 422 kts | 224° |
| 2026-04-22 15:30 | 52.75526 | -53.85796 | 38146 ft | 421 kts | 224° |
| 2026-04-22 15:30 | 52.71863 | -53.93298 | 38138 ft | 419 kts | 224° |
| 2026-04-22 15:31 | 52.68206 | -54.00760 | 38152 ft | 418 kts | 224° |
| 2026-04-22 15:31 | 52.64564 | -54.08166 | 38151 ft | 418 kts | 224° |
| 2026-04-22 15:32 | 52.60897 | -54.15605 | 38156 ft | 418 kts | 224° |
| 2026-04-22 15:32 | 52.57229 | -54.23025 | 38156 ft | 417 kts | 223° |
| 2026-04-22 15:33 | 52.53574 | -54.30400 | 38155 ft | 415 kts | 223° |
| 2026-04-22 15:33 | 52.49919 | -54.37749 | 38156 ft | 415 kts | 223° |
| 2026-04-22 15:34 | 52.46259 | -54.45085 | 38156 ft | 415 kts | 223° |
| 2026-04-22 15:34 | 52.42595 | -54.52411 | 38160 ft | 415 kts | 223° |
| 2026-04-22 15:35 | 52.39554 | -54.58477 | 38162 ft | 414 kts | 222° |
| 2026-04-22 15:35 | 52.35270 | -54.66994 | 38163 ft | 414 kts | 222° |
| 2026-04-22 15:36 | 52.31602 | -54.74263 | 38169 ft | 414 kts | 222° |
| 2026-04-22 15:36 | 52.27928 | -54.81525 | 38159 ft | 414 kts | 222° |
| 2026-04-22 15:37 | 52.24252 | -54.88768 | 38190 ft | 414 kts | 222° |
| 2026-04-22 15:37 | 52.20573 | -54.95999 | 38181 ft | 414 kts | 222° |
| 2026-04-22 15:38 | 52.16892 | -55.03211 | 38179 ft | 414 kts | 221° |
| 2026-04-22 15:38 | 52.11364 | -55.13998 | 38184 ft | 414 kts | 222° |
| 2026-04-22 15:39 | 52.07993 | -55.21706 | 38184 ft | 420 kts | 227° |
| 2026-04-22 15:39 | 52.04798 | -55.29682 | 38182 ft | 421 kts | 228° |
| 2026-04-22 15:40 | 52.01635 | -55.37693 | 38182 ft | 421 kts | 228° |
| 2026-04-22 15:40 | 51.98464 | -55.45686 | 38184 ft | 421 kts | 228° |
| 2026-04-22 15:41 | 51.95302 | -55.53606 | 38181 ft | 421 kts | 227° |
| 2026-04-22 15:41 | 51.92110 | -55.61568 | 38185 ft | 421 kts | 227° |
| 2026-04-22 15:42 | 51.88910 | -55.69520 | 38185 ft | 422 kts | 227° |
| 2026-04-22 15:42 | 51.85702 | -55.77468 | 38180 ft | 422 kts | 227° |
| 2026-04-22 15:43 | 51.82491 | -55.85403 | 38178 ft | 422 kts | 227° |
| 2026-04-22 15:43 | 51.79273 | -55.93329 | 38182 ft | 422 kts | 227° |
| 2026-04-22 15:44 | 51.76052 | -56.01237 | 38210 ft | 421 kts | 227° |
| 2026-04-22 15:44 | 51.72819 | -56.09149 | 38173 ft | 423 kts | 227° |
| 2026-04-22 15:45 | 51.69569 | -56.17077 | 38169 ft | 424 kts | 227° |
| 2026-04-22 15:45 | 51.66309 | -56.25010 | 38171 ft | 425 kts | 227° |
| 2026-04-22 15:46 | 51.63042 | -56.32935 | 38181 ft | 425 kts | 227° |
| 2026-04-22 15:46 | 51.59768 | -56.40852 | 38202 ft | 425 kts | 227° |
| 2026-04-22 15:47 | 51.56484 | -56.48768 | 38181 ft | 426 kts | 227° |
| 2026-04-22 15:47 | 51.53187 | -56.56689 | 38183 ft | 426 kts | 227° |
| 2026-04-22 15:48 | 51.49887 | -56.64597 | 38180 ft | 426 kts | 227° |
| 2026-04-22 15:48 | 51.46581 | -56.72493 | 38191 ft | 426 kts | 227° |
| 2026-04-22 15:49 | 51.43292 | -56.80325 | 38202 ft | 427 kts | 227° |
| 2026-04-22 15:49 | 51.39967 | -56.88216 | 38183 ft | 428 kts | 227° |
| 2026-04-22 15:50 | 51.36630 | -56.96115 | 38188 ft | 428 kts | 227° |
| 2026-04-22 15:50 | 51.33287 | -57.04004 | 38188 ft | 428 kts | 227° |
| 2026-04-22 15:51 | 51.29941 | -57.11878 | 38200 ft | 428 kts | 227° |
| 2026-04-22 15:51 | 51.26590 | -57.19736 | 38204 ft | 428 kts | 227° |
| 2026-04-22 15:52 | 51.23234 | -57.27584 | 38207 ft | 428 kts | 227° |
| 2026-04-22 15:52 | 51.19872 | -57.35421 | 38205 ft | 428 kts | 226° |
| 2026-04-22 15:53 | 51.16506 | -57.43242 | 38209 ft | 428 kts | 226° |
| 2026-04-22 15:53 | 51.13131 | -57.51062 | 38203 ft | 429 kts | 227° |
| 2026-04-22 15:54 | 51.09735 | -57.58902 | 38208 ft | 431 kts | 227° |
| 2026-04-22 15:54 | 51.06325 | -57.66758 | 38207 ft | 432 kts | 227° |
| 2026-04-22 15:55 | 51.02908 | -57.74609 | 38207 ft | 432 kts | 227° |
| 2026-04-22 15:55 | 50.99487 | -57.82444 | 38197 ft | 432 kts | 227° |
| 2026-04-22 15:56 | 50.96640 | -57.88942 | 38238 ft | 432 kts | 227° |
| 2026-04-22 15:56 | 50.93198 | -57.96776 | 38203 ft | 434 kts | 227° |
| 2026-04-22 15:57 | 50.89739 | -58.04625 | 38203 ft | 435 kts | 227° |
| 2026-04-22 15:57 | 50.86273 | -58.12474 | 38204 ft | 435 kts | 227° |
| 2026-04-22 15:58 | 50.82805 | -58.20302 | 38208 ft | 435 kts | 227° |
| 2026-04-22 15:58 | 50.79329 | -58.28122 | 38213 ft | 435 kts | 227° |
| 2026-04-22 15:59 | 50.75841 | -58.35941 | 38206 ft | 436 kts | 227° |
| 2026-04-22 15:59 | 50.72342 | -58.43765 | 38206 ft | 436 kts | 227° |
| 2026-04-22 16:00 | 50.68836 | -58.51580 | 38208 ft | 436 kts | 227° |
| 2026-04-22 16:00 | 50.65325 | -58.59386 | 38206 ft | 436 kts | 227° |
| 2026-04-22 16:01 | 50.61813 | -58.67172 | 38202 ft | 435 kts | 227° |
| 2026-04-22 16:01 | 50.58308 | -58.74920 | 38217 ft | 434 kts | 227° |
| 2026-04-22 16:02 | 50.54796 | -58.82658 | 38202 ft | 435 kts | 226° |
| 2026-04-22 16:02 | 50.51275 | -58.90392 | 38196 ft | 435 kts | 226° |
| 2026-04-22 16:03 | 50.47750 | -58.98112 | 38216 ft | 435 kts | 227° |
| 2026-04-22 16:03 | 50.44209 | -59.05842 | 38205 ft | 437 kts | 227° |
| 2026-04-22 16:04 | 50.40655 | -59.13580 | 38205 ft | 437 kts | 227° |
| 2026-04-22 16:04 | 50.37096 | -59.21308 | 38217 ft | 437 kts | 227° |
| 2026-04-22 16:05 | 50.33535 | -59.29023 | 38211 ft | 437 kts | 227° |
| 2026-04-22 16:05 | 50.29989 | -59.36690 | 38207 ft | 439 kts | 227° |
| 2026-04-22 16:06 | 50.26367 | -59.44488 | 38203 ft | 441 kts | 227° |
| 2026-04-22 16:06 | 50.22760 | -59.52231 | 38201 ft | 441 kts | 227° |
| 2026-04-22 16:07 | 50.19148 | -59.59960 | 38200 ft | 441 kts | 227° |
| 2026-04-22 16:07 | 50.15556 | -59.67624 | 38222 ft | 441 kts | 227° |
| 2026-04-22 16:08 | 50.11920 | -59.75354 | 38202 ft | 443 kts | 227° |
| 2026-04-22 16:08 | 50.08268 | -59.83096 | 38200 ft | 444 kts | 227° |
| 2026-04-22 16:09 | 50.04611 | -59.90833 | 38200 ft | 444 kts | 227° |
| 2026-04-22 16:09 | 50.00945 | -59.98562 | 38200 ft | 445 kts | 227° |
| 2026-04-22 16:10 | 49.97260 | -60.06305 | 38202 ft | 447 kts | 227° |
| 2026-04-22 16:10 | 49.93555 | -60.14071 | 38204 ft | 448 kts | 227° |
| 2026-04-22 16:11 | 49.89843 | -60.21830 | 38209 ft | 448 kts | 227° |
| 2026-04-22 16:11 | 49.86125 | -60.29580 | 38211 ft | 448 kts | 227° |
| 2026-04-22 16:12 | 49.82402 | -60.37314 | 38210 ft | 448 kts | 227° |
| 2026-04-22 16:12 | 49.78666 | -60.45050 | 38209 ft | 449 kts | 227° |
| 2026-04-22 16:13 | 49.74948 | -60.52732 | 38205 ft | 449 kts | 227° |
| 2026-04-22 16:13 | 49.71196 | -60.60460 | 38205 ft | 449 kts | 227° |
| 2026-04-22 16:14 | 49.67442 | -60.68171 | 38213 ft | 449 kts | 227° |
| 2026-04-22 16:14 | 49.63682 | -60.75868 | 38213 ft | 449 kts | 227° |
| 2026-04-22 16:15 | 49.59918 | -60.83553 | 38213 ft | 449 kts | 227° |
| 2026-04-22 16:15 | 49.56148 | -60.91227 | 38215 ft | 449 kts | 227° |
| 2026-04-22 16:16 | 49.52373 | -60.98891 | 38216 ft | 449 kts | 227° |
| 2026-04-22 16:16 | 49.48590 | -61.06545 | 38221 ft | 450 kts | 227° |
| 2026-04-22 16:17 | 49.44793 | -61.14208 | 38227 ft | 451 kts | 227° |
| 2026-04-22 16:17 | 49.40981 | -61.21878 | 38226 ft | 452 kts | 227° |
| 2026-04-22 16:18 | 49.37161 | -61.29545 | 38225 ft | 452 kts | 227° |
| 2026-04-22 16:18 | 49.33339 | -61.37194 | 38235 ft | 452 kts | 227° |
| 2026-04-22 16:19 | 49.29504 | -61.44843 | 38230 ft | 453 kts | 227° |
| 2026-04-22 16:19 | 49.25662 | -61.52486 | 38228 ft | 453 kts | 227° |
| 2026-04-22 16:20 | 49.21816 | -61.60117 | 38235 ft | 453 kts | 227° |
| 2026-04-22 16:20 | 49.17965 | -61.67733 | 38245 ft | 453 kts | 228° |
| 2026-04-22 16:21 | 49.14106 | -61.75344 | 38234 ft | 453 kts | 228° |
| 2026-04-22 16:21 | 49.10242 | -61.82943 | 38236 ft | 453 kts | 227° |
| 2026-04-22 16:22 | 49.04460 | -61.94276 | 38234 ft | 453 kts | 227° |
| 2026-04-22 16:23 | 48.98641 | -62.05631 | 38238 ft | 454 kts | 228° |
| 2026-04-22 16:23 | 48.94752 | -62.13194 | 38239 ft | 454 kts | 228° |
| 2026-04-22 16:24 | 48.88907 | -62.24520 | 38240 ft | 454 kts | 227° |
| 2026-04-22 16:25 | 48.85005 | -62.32054 | 38247 ft | 454 kts | 228° |
| 2026-04-22 16:25 | 48.79129 | -62.43359 | 38250 ft | 455 kts | 228° |
| 2026-04-22 16:26 | 48.75205 | -62.50883 | 38249 ft | 455 kts | 228° |
| 2026-04-22 16:26 | 48.71274 | -62.58399 | 38250 ft | 455 kts | 228° |
| 2026-04-22 16:27 | 48.67339 | -62.65901 | 38252 ft | 455 kts | 228° |
| 2026-04-22 16:27 | 48.63396 | -62.73398 | 38255 ft | 456 kts | 228° |
| 2026-04-22 16:28 | 48.59443 | -62.80894 | 38254 ft | 456 kts | 228° |
| 2026-04-22 16:28 | 48.55486 | -62.88376 | 38254 ft | 456 kts | 228° |
| 2026-04-22 16:29 | 48.51550 | -62.95795 | 38258 ft | 456 kts | 228° |
| 2026-04-22 16:29 | 48.47581 | -63.03257 | 38257 ft | 456 kts | 228° |
| 2026-04-22 16:30 | 48.43605 | -63.10712 | 38262 ft | 456 kts | 228° |
| 2026-04-22 16:30 | 48.39624 | -63.18156 | 38263 ft | 456 kts | 228° |
| 2026-04-22 16:31 | 48.35636 | -63.25593 | 38270 ft | 457 kts | 228° |
| 2026-04-22 16:31 | 48.31641 | -63.33022 | 38268 ft | 457 kts | 228° |
| 2026-04-22 16:32 | 48.27636 | -63.40447 | 38268 ft | 458 kts | 228° |
| 2026-04-22 16:32 | 48.23626 | -63.47864 | 38270 ft | 458 kts | 228° |
| 2026-04-22 16:33 | 48.19610 | -63.55270 | 38269 ft | 457 kts | 229° |
| 2026-04-22 16:33 | 48.15591 | -63.62662 | 38271 ft | 457 kts | 228° |
| 2026-04-22 16:34 | 48.11572 | -63.70033 | 38270 ft | 457 kts | 228° |
| 2026-04-22 16:34 | 48.07547 | -63.77395 | 38274 ft | 457 kts | 228° |
| 2026-04-22 16:35 | 48.03544 | -63.84697 | 38273 ft | 457 kts | 228° |
| 2026-04-22 16:35 | 47.99511 | -63.92033 | 38273 ft | 457 kts | 228° |
| 2026-04-22 16:36 | 47.95471 | -63.99362 | 38270 ft | 457 kts | 228° |
| 2026-04-22 16:36 | 47.91426 | -64.06681 | 38273 ft | 457 kts | 228° |
| 2026-04-22 16:37 | 47.87378 | -64.13985 | 38281 ft | 457 kts | 228° |
| 2026-04-22 16:37 | 47.83325 | -64.21279 | 38277 ft | 457 kts | 228° |
| 2026-04-22 16:38 | 47.79267 | -64.28560 | 38276 ft | 457 kts | 228° |
| 2026-04-22 16:38 | 47.75202 | -64.35834 | 38278 ft | 457 kts | 229° |
| 2026-04-22 16:39 | 47.71132 | -64.43100 | 38280 ft | 458 kts | 229° |
| 2026-04-22 16:39 | 47.67051 | -64.50366 | 38280 ft | 458 kts | 229° |
| 2026-04-22 16:40 | 47.62962 | -64.57626 | 38276 ft | 459 kts | 229° |
| 2026-04-22 16:41 | 47.56821 | -64.68492 | 38271 ft | 458 kts | 229° |
| 2026-04-22 16:41 | 47.52719 | -64.75725 | 38268 ft | 459 kts | 229° |
| 2026-04-22 16:42 | 47.48609 | -64.82955 | 38268 ft | 459 kts | 229° |
| 2026-04-22 16:42 | 47.44492 | -64.90177 | 38269 ft | 459 kts | 229° |
| 2026-04-22 16:43 | 47.40372 | -64.97385 | 38263 ft | 459 kts | 229° |
| 2026-04-22 16:43 | 47.36245 | -65.04583 | 38263 ft | 459 kts | 229° |
| 2026-04-22 16:44 | 47.32115 | -65.11772 | 38260 ft | 460 kts | 229° |
| 2026-04-22 16:44 | 47.28672 | -65.17748 | 38261 ft | 462 kts | 229° |
| 2026-04-22 16:45 | 47.24513 | -65.24952 | 38259 ft | 460 kts | 229° |
| 2026-04-22 16:45 | 47.20365 | -65.32118 | 38261 ft | 460 kts | 229° |
| 2026-04-22 16:46 | 47.16203 | -65.39280 | 38251 ft | 461 kts | 230° |
| 2026-04-22 16:46 | 47.12031 | -65.46451 | 38251 ft | 462 kts | 230° |
| 2026-04-22 16:47 | 47.07849 | -65.53621 | 38247 ft | 462 kts | 229° |
| 2026-04-22 16:47 | 47.03663 | -65.60775 | 38243 ft | 462 kts | 230° |
| 2026-04-22 16:48 | 46.99467 | -65.67927 | 38242 ft | 463 kts | 230° |
| 2026-04-22 16:48 | 46.95266 | -65.75070 | 38238 ft | 463 kts | 230° |
| 2026-04-22 16:49 | 46.91059 | -65.82204 | 38234 ft | 463 kts | 230° |
| 2026-04-22 16:49 | 46.86849 | -65.89325 | 38238 ft | 463 kts | 230° |
| 2026-04-22 16:50 | 46.82630 | -65.96440 | 38235 ft | 463 kts | 230° |
| 2026-04-22 16:50 | 46.78408 | -66.03542 | 38236 ft | 463 kts | 230° |
| 2026-04-22 16:51 | 46.74183 | -66.10633 | 38231 ft | 463 kts | 230° |
| 2026-04-22 16:51 | 46.69957 | -66.17707 | 38232 ft | 463 kts | 230° |
| 2026-04-22 16:52 | 46.65726 | -66.24769 | 38230 ft | 463 kts | 230° |
| 2026-04-22 16:52 | 46.61490 | -66.31819 | 38228 ft | 463 kts | 230° |
| 2026-04-22 16:53 | 46.57282 | -66.38807 | 38220 ft | 463 kts | 231° |
| 2026-04-22 16:53 | 46.53009 | -66.45886 | 38222 ft | 463 kts | 231° |
| 2026-04-22 16:54 | 46.48789 | -66.52859 | 38219 ft | 463 kts | 231° |
| 2026-04-22 16:54 | 46.44539 | -66.59863 | 38218 ft | 462 kts | 230° |
| 2026-04-22 16:55 | 46.40283 | -66.66858 | 38219 ft | 462 kts | 230° |
| 2026-04-22 16:55 | 46.36024 | -66.73840 | 38216 ft | 463 kts | 230° |
| 2026-04-22 16:56 | 46.31759 | -66.80815 | 38222 ft | 463 kts | 230° |
| 2026-04-22 16:56 | 46.27491 | -66.87777 | 38219 ft | 462 kts | 230° |
| 2026-04-22 16:57 | 46.23221 | -66.94724 | 38214 ft | 462 kts | 230° |
| 2026-04-22 16:57 | 46.18944 | -67.01666 | 38217 ft | 462 kts | 230° |
| 2026-04-22 16:58 | 46.15359 | -67.07469 | 38216 ft | 462 kts | 230° |
| 2026-04-22 16:58 | 46.10381 | -67.15509 | 38202 ft | 462 kts | 231° |
| 2026-04-22 16:59 | 46.06094 | -67.22413 | 38220 ft | 462 kts | 231° |
| 2026-04-22 16:59 | 46.01807 | -67.29300 | 38216 ft | 462 kts | 231° |
| 2026-04-22 17:00 | 45.97516 | -67.36177 | 38217 ft | 462 kts | 231° |
| 2026-04-22 17:00 | 45.91070 | -67.46474 | 38220 ft | 462 kts | 231° |
| 2026-04-22 17:01 | 45.86773 | -67.53316 | 38211 ft | 461 kts | 231° |
| 2026-04-22 17:01 | 45.82473 | -67.60149 | 38210 ft | 461 kts | 231° |
| 2026-04-22 17:02 | 45.78168 | -67.66970 | 38197 ft | 461 kts | 231° |
| 2026-04-22 17:02 | 45.73889 | -67.73734 | 38221 ft | 461 kts | 231° |
| 2026-04-22 17:03 | 45.69514 | -67.80447 | 38218 ft | 462 kts | 227° |
| 2026-04-22 17:03 | 45.64819 | -67.86747 | 38220 ft | 463 kts | 226° |
| 2026-04-22 17:04 | 45.60055 | -67.92953 | 38219 ft | 463 kts | 226° |
| 2026-04-22 17:04 | 45.55278 | -67.99132 | 38224 ft | 463 kts | 226° |
| 2026-04-22 17:05 | 45.50501 | -68.05307 | 38220 ft | 463 kts | 226° |
| 2026-04-22 17:05 | 45.45710 | -68.11455 | 38219 ft | 464 kts | 224° |
| 2026-04-22 17:06 | 45.40873 | -68.17524 | 38227 ft | 464 kts | 223° |
| 2026-04-22 17:06 | 45.36025 | -68.23575 | 38217 ft | 464 kts | 224° |
| 2026-04-22 17:07 | 45.31231 | -68.29702 | 38218 ft | 463 kts | 227° |
| 2026-04-22 17:07 | 45.26535 | -68.35948 | 38219 ft | 463 kts | 227° |
| 2026-04-22 17:08 | 45.21804 | -68.42140 | 38214 ft | 463 kts | 226° |
| 2026-04-22 17:08 | 45.17026 | -68.48266 | 38222 ft | 463 kts | 226° |
| 2026-04-22 17:09 | 45.12228 | -68.54362 | 38194 ft | 463 kts | 226° |
| 2026-04-22 17:09 | 45.07429 | -68.60441 | 38220 ft | 463 kts | 226° |
| 2026-04-22 17:10 | 45.02626 | -68.66515 | 38219 ft | 463 kts | 226° |
| 2026-04-22 17:10 | 44.97824 | -68.72577 | 38210 ft | 463 kts | 226° |
| 2026-04-22 17:11 | 44.93021 | -68.78627 | 38201 ft | 463 kts | 226° |
| 2026-04-22 17:11 | 44.88214 | -68.84668 | 38203 ft | 463 kts | 226° |
| 2026-04-22 17:12 | 44.83407 | -68.90695 | 38203 ft | 463 kts | 226° |
| 2026-04-22 17:12 | 44.78596 | -68.96712 | 38205 ft | 463 kts | 226° |
| 2026-04-22 17:13 | 44.73782 | -69.02719 | 38203 ft | 463 kts | 226° |
| 2026-04-22 17:13 | 44.68962 | -69.08720 | 38205 ft | 463 kts | 226° |
| 2026-04-22 17:14 | 44.64139 | -69.14710 | 38209 ft | 463 kts | 226° |
| 2026-04-22 17:14 | 44.59315 | -69.20688 | 38210 ft | 462 kts | 226° |
| 2026-04-22 17:15 | 44.54490 | -69.26654 | 38207 ft | 462 kts | 227° |
| 2026-04-22 17:15 | 44.49693 | -69.32573 | 38209 ft | 463 kts | 226° |
| 2026-04-22 17:16 | 44.44858 | -69.38523 | 38176 ft | 463 kts | 227° |
| 2026-04-22 17:16 | 44.40020 | -69.44462 | 38180 ft | 463 kts | 227° |
| 2026-04-22 17:17 | 44.35181 | -69.50392 | 38195 ft | 463 kts | 227° |
| 2026-04-22 17:17 | 44.30338 | -69.56312 | 38161 ft | 463 kts | 227° |
| 2026-04-22 17:18 | 44.25488 | -69.62226 | 38210 ft | 463 kts | 227° |
| 2026-04-22 17:18 | 44.20640 | -69.68124 | 38212 ft | 462 kts | 227° |
| 2026-04-22 17:19 | 44.10939 | -69.79888 | 38218 ft | 462 kts | 227° |
| 2026-04-22 17:20 | 44.01236 | -69.91602 | 38220 ft | 462 kts | 227° |
| 2026-04-22 17:21 | 43.93956 | -70.00354 | 38223 ft | 461 kts | 227° |
| 2026-04-22 17:22 | 43.89105 | -70.06171 | 37549 ft | 461 kts | 227° |
| 2026-04-22 17:22 | 43.86683 | -70.09069 | 37031 ft | 459 kts | 227° |
| 2026-04-22 17:22 | 43.81856 | -70.14834 | 36013 ft | 458 kts | 228° |
| 2026-04-22 17:23 | 43.79446 | -70.17708 | 35516 ft | 456 kts | 229° |
| 2026-04-22 17:23 | 43.74644 | -70.23425 | 34560 ft | 454 kts | 230° |
| 2026-04-22 17:23 | 43.72254 | -70.26267 | 34070 ft | 453 kts | 230° |
| 2026-04-22 17:24 | 43.69866 | -70.29103 | 33523 ft | 452 kts | 230° |
| 2026-04-22 17:24 | 43.67482 | -70.31933 | 32987 ft | 452 kts | 230° |
| 2026-04-22 17:24 | 43.65132 | -70.34797 | 32431 ft | 448 kts | 233° |
| 2026-04-22 17:24 | 43.63037 | -70.37915 | 31911 ft | 438 kts | 240° |
| 2026-04-22 17:25 | 43.61225 | -70.41253 | 31398 ft | 433 kts | 243° |
| 2026-04-22 17:25 | 43.59510 | -70.44642 | 30904 ft | 428 kts | 244° |
| 2026-04-22 17:25 | 43.57832 | -70.48010 | 30434 ft | 423 kts | 244° |
| 2026-04-22 17:25 | 43.56184 | -70.51331 | 30225 ft | 417 kts | 245° |
| 2026-04-22 17:26 | 43.52918 | -70.57925 | 30204 ft | 416 kts | 245° |
| 2026-04-22 17:26 | 43.49672 | -70.64466 | 30204 ft | 417 kts | 244° |
| 2026-04-22 17:27 | 43.46390 | -70.71059 | 30202 ft | 417 kts | 244° |
| 2026-04-22 17:27 | 43.43104 | -70.77644 | 30202 ft | 417 kts | 244° |
| 2026-04-22 17:28 | 43.39835 | -70.84176 | 30201 ft | 413 kts | 244° |
| 2026-04-22 17:28 | 43.36577 | -70.90678 | 30161 ft | 414 kts | 244° |
| 2026-04-22 17:29 | 43.33299 | -70.97210 | 30182 ft | 416 kts | 244° |
| 2026-04-22 17:29 | 43.30007 | -71.03747 | 30184 ft | 416 kts | 244° |
| 2026-04-22 17:30 | 43.26710 | -71.10281 | 30184 ft | 416 kts | 244° |
| 2026-04-22 17:30 | 43.23412 | -71.16803 | 30185 ft | 416 kts | 244° |
| 2026-04-22 17:31 | 43.20667 | -71.22222 | 30177 ft | 416 kts | 244° |
| 2026-04-22 17:31 | 43.19555 | -71.24413 | 30184 ft | 416 kts | 244° |
| 2026-04-22 17:32 | 43.16710 | -71.30016 | 29906 ft | 419 kts | 244° |
| 2026-04-22 17:32 | 43.15043 | -71.33294 | 29616 ft | 419 kts | 243° |
| 2026-04-22 17:32 | 43.13378 | -71.36560 | 29337 ft | 418 kts | 243° |
| 2026-04-22 17:33 | 43.11717 | -71.39814 | 29048 ft | 416 kts | 243° |
| 2026-04-22 17:33 | 43.10063 | -71.43053 | 28779 ft | 414 kts | 243° |
| 2026-04-22 17:33 | 43.08415 | -71.46276 | 28475 ft | 413 kts | 243° |
| 2026-04-22 17:33 | 43.06773 | -71.49487 | 28186 ft | 411 kts | 243° |
| 2026-04-22 17:34 | 43.05135 | -71.52686 | 27918 ft | 410 kts | 243° |
| 2026-04-22 17:34 | 43.03500 | -71.55875 | 27641 ft | 409 kts | 243° |
| 2026-04-22 17:34 | 43.01871 | -71.59048 | 27365 ft | 408 kts | 243° |
| 2026-04-22 17:34 | 43.00246 | -71.62211 | 27114 ft | 407 kts | 243° |
| 2026-04-22 17:35 | 42.98620 | -71.65373 | 26860 ft | 405 kts | 243° |
| 2026-04-22 17:35 | 42.97001 | -71.68516 | 26601 ft | 404 kts | 243° |
| 2026-04-22 17:35 | 42.95387 | -71.71649 | 26334 ft | 402 kts | 242° |
| 2026-04-22 17:35 | 42.93778 | -71.74766 | 26062 ft | 401 kts | 242° |
| 2026-04-22 17:36 | 42.92173 | -71.77874 | 25810 ft | 400 kts | 242° |
| 2026-04-22 17:36 | 42.90573 | -71.80969 | 25569 ft | 399 kts | 242° |
| 2026-04-22 17:36 | 42.88974 | -71.84060 | 25306 ft | 398 kts | 242° |
| 2026-04-22 17:36 | 42.87381 | -71.87133 | 25058 ft | 396 kts | 242° |
| 2026-04-22 17:37 | 42.85793 | -71.90197 | 24819 ft | 395 kts | 242° |
| 2026-04-22 17:37 | 42.84209 | -71.93248 | 24563 ft | 394 kts | 242° |
| 2026-04-22 17:37 | 42.82628 | -71.96289 | 24331 ft | 393 kts | 242° |
| 2026-04-22 17:37 | 42.81051 | -71.99322 | 24174 ft | 392 kts | 242° |
| 2026-04-22 17:38 | 42.79475 | -72.02348 | 24156 ft | 392 kts | 242° |
| 2026-04-22 17:38 | 42.77899 | -72.05374 | 24149 ft | 392 kts | 241° |
| 2026-04-22 17:38 | 42.76322 | -72.08396 | 24154 ft | 392 kts | 241° |
| 2026-04-22 17:38 | 42.74744 | -72.11418 | 24156 ft | 392 kts | 241° |
| 2026-04-22 17:39 | 42.73164 | -72.14440 | 24162 ft | 392 kts | 241° |
| 2026-04-22 17:39 | 42.71581 | -72.17463 | 24163 ft | 392 kts | 241° |
| 2026-04-22 17:39 | 42.68417 | -72.23500 | 24084 ft | 392 kts | 241° |
| 2026-04-22 17:40 | 42.66837 | -72.26507 | 23849 ft | 391 kts | 241° |
| 2026-04-22 17:40 | 42.65257 | -72.29517 | 23586 ft | 391 kts | 241° |
| 2026-04-22 17:40 | 42.63676 | -72.32522 | 23293 ft | 391 kts | 240° |
| 2026-04-22 17:40 | 42.62098 | -72.35519 | 23011 ft | 390 kts | 240° |
| 2026-04-22 17:41 | 42.60525 | -72.38503 | 22736 ft | 388 kts | 240° |
| 2026-04-22 17:41 | 42.58954 | -72.41478 | 22467 ft | 387 kts | 240° |
| 2026-04-22 17:41 | 42.57389 | -72.44439 | 22191 ft | 385 kts | 240° |
| 2026-04-22 17:41 | 42.55830 | -72.47387 | 21920 ft | 384 kts | 240° |
| 2026-04-22 17:42 | 42.54277 | -72.50324 | 21674 ft | 383 kts | 240° |
| 2026-04-22 17:42 | 42.52747 | -72.53213 | 21423 ft | 382 kts | 240° |
| 2026-04-22 17:42 | 42.51200 | -72.56131 | 21152 ft | 381 kts | 240° |
| 2026-04-22 17:42 | 42.49656 | -72.59040 | 20888 ft | 380 kts | 240° |
| 2026-04-22 17:43 | 42.48117 | -72.61936 | 20627 ft | 378 kts | 240° |
| 2026-04-22 17:43 | 42.46579 | -72.64829 | 20369 ft | 378 kts | 240° |
| 2026-04-22 17:43 | 42.45023 | -72.67752 | 20111 ft | 377 kts | 239° |
| 2026-04-22 17:43 | 42.43495 | -72.70621 | 19863 ft | 376 kts | 239° |
| 2026-04-22 17:44 | 42.41967 | -72.73484 | 19624 ft | 375 kts | 239° |
| 2026-04-22 17:44 | 42.40464 | -72.76301 | 19378 ft | 374 kts | 239° |
| 2026-04-22 17:44 | 42.38944 | -72.79146 | 19132 ft | 373 kts | 239° |
| 2026-04-22 17:44 | 42.37427 | -72.81982 | 18891 ft | 371 kts | 239° |
| 2026-04-22 17:45 | 42.35916 | -72.84805 | 18650 ft | 370 kts | 239° |
| 2026-04-22 17:45 | 42.34409 | -72.87618 | 18418 ft | 369 kts | 239° |
| 2026-04-22 17:45 | 42.32904 | -72.90425 | 18182 ft | 368 kts | 239° |
| 2026-04-22 17:45 | 42.31400 | -72.93225 | 18149 ft | 368 kts | 239° |
| 2026-04-22 17:46 | 42.29896 | -72.96025 | 18145 ft | 368 kts | 239° |
| 2026-04-22 17:46 | 42.28389 | -72.98828 | 18144 ft | 368 kts | 239° |
| 2026-04-22 17:46 | 42.26883 | -73.01626 | 18145 ft | 369 kts | 239° |
| 2026-04-22 17:46 | 42.25374 | -73.04424 | 18152 ft | 369 kts | 239° |
| 2026-04-22 17:47 | 42.23864 | -73.07225 | 18157 ft | 369 kts | 239° |
| 2026-04-22 17:47 | 42.22353 | -73.10025 | 18149 ft | 369 kts | 239° |
| 2026-04-22 17:47 | 42.20843 | -73.12820 | 18133 ft | 369 kts | 239° |
| 2026-04-22 17:47 | 42.19329 | -73.15620 | 18135 ft | 369 kts | 239° |
| 2026-04-22 17:48 | 42.18327 | -73.17471 | 18144 ft | 369 kts | 239° |
| 2026-04-22 17:48 | 42.16302 | -73.21210 | 18150 ft | 370 kts | 239° |
| 2026-04-22 17:48 | 42.14785 | -73.24008 | 18143 ft | 370 kts | 239° |
| 2026-04-22 17:48 | 42.13266 | -73.26804 | 18140 ft | 370 kts | 239° |
| 2026-04-22 17:49 | 42.11747 | -73.29599 | 18148 ft | 370 kts | 239° |
| 2026-04-22 17:49 | 42.10227 | -73.32394 | 18144 ft | 370 kts | 239° |
| 2026-04-22 17:49 | 42.08706 | -73.35189 | 18149 ft | 370 kts | 239° |
| 2026-04-22 17:49 | 42.07184 | -73.37981 | 18133 ft | 370 kts | 239° |
| 2026-04-22 17:50 | 42.05663 | -73.40769 | 18131 ft | 370 kts | 239° |
| 2026-04-22 17:50 | 42.04141 | -73.43559 | 18135 ft | 370 kts | 239° |
| 2026-04-22 17:50 | 42.02618 | -73.46346 | 18138 ft | 370 kts | 239° |
| 2026-04-22 17:50 | 42.01094 | -73.49134 | 18133 ft | 370 kts | 238° |
| 2026-04-22 17:51 | 41.99566 | -73.51925 | 18118 ft | 371 kts | 238° |
| 2026-04-22 17:51 | 41.98037 | -73.54716 | 18128 ft | 371 kts | 238° |
| 2026-04-22 17:51 | 41.96507 | -73.57504 | 18134 ft | 371 kts | 238° |
| 2026-04-22 17:51 | 41.94978 | -73.60292 | 18127 ft | 371 kts | 238° |
| 2026-04-22 17:52 | 41.93447 | -73.63079 | 18129 ft | 371 kts | 238° |
| 2026-04-22 17:52 | 41.91915 | -73.65865 | 18116 ft | 371 kts | 238° |
| 2026-04-22 17:52 | 41.90381 | -73.68651 | 18124 ft | 371 kts | 238° |
| 2026-04-22 17:52 | 41.88850 | -73.71430 | 18007 ft | 367 kts | 238° |
| 2026-04-22 17:53 | 41.87342 | -73.74160 | 17520 ft | 363 kts | 238° |
| 2026-04-22 17:53 | 41.85846 | -73.76870 | 17046 ft | 359 kts | 238° |
| 2026-04-22 17:53 | 41.84370 | -73.79540 | 16618 ft | 354 kts | 238° |
| 2026-04-22 17:53 | 41.82914 | -73.82174 | 16172 ft | 350 kts | 238° |
| 2026-04-22 17:54 | 41.81473 | -73.84779 | 15765 ft | 346 kts | 238° |
| 2026-04-22 17:54 | 41.80048 | -73.87352 | 15345 ft | 342 kts | 237° |
| 2026-04-22 17:54 | 41.78636 | -73.89901 | 14928 ft | 339 kts | 237° |
| 2026-04-22 17:54 | 41.77235 | -73.92427 | 14495 ft | 336 kts | 237° |
| 2026-04-22 17:55 | 41.76313 | -73.94086 | 14217 ft | 334 kts | 237° |
| 2026-04-22 17:55 | 41.74468 | -73.97409 | 13629 ft | 331 kts | 237° |
| 2026-04-22 17:55 | 41.73102 | -73.99866 | 13197 ft | 327 kts | 237° |
| 2026-04-22 17:55 | 41.71750 | -74.02295 | 12772 ft | 323 kts | 237° |
| 2026-04-22 17:56 | 41.70409 | -74.04704 | 12373 ft | 323 kts | 237° |
| 2026-04-22 17:56 | 41.69068 | -74.07111 | 11929 ft | 322 kts | 237° |
| 2026-04-22 17:56 | 41.67730 | -74.09508 | 11535 ft | 321 kts | 237° |
| 2026-04-22 17:56 | 41.66400 | -74.11890 | 11121 ft | 319 kts | 236° |
| 2026-04-22 17:57 | 41.65075 | -74.14262 | 10711 ft | 317 kts | 236° |
| 2026-04-22 17:57 | 41.63769 | -74.16596 | 10506 ft | 307 kts | 236° |
| 2026-04-22 17:57 | 41.62519 | -74.18823 | 10418 ft | 292 kts | 236° |
| 2026-04-22 17:57 | 41.61325 | -74.20951 | 10294 ft | 281 kts | 237° |
| 2026-04-22 17:58 | 41.60187 | -74.22983 | 10162 ft | 272 kts | 237° |
| 2026-04-22 17:58 | 41.59054 | -74.25006 | 10063 ft | 264 kts | 237° |
| 2026-04-22 17:58 | 41.57965 | -74.26947 | 9904 ft | 259 kts | 237° |
| 2026-04-22 17:58 | 41.56887 | -74.28872 | 9599 ft | 259 kts | 237° |
| 2026-04-22 17:59 | 41.55808 | -74.30797 | 9311 ft | 258 kts | 237° |
| 2026-04-22 17:59 | 41.54656 | -74.32596 | 9069 ft | 260 kts | 226° |
| 2026-04-22 17:59 | 41.53123 | -74.33896 | 8840 ft | 265 kts | 207° |
| 2026-04-22 17:59 | 41.51391 | -74.34746 | 8560 ft | 265 kts | 202° |
| 2026-04-22 18:00 | 41.50205 | -74.35253 | 8361 ft | 265 kts | 201° |
| 2026-04-22 18:00 | 41.47884 | -74.36225 | 7991 ft | 263 kts | 201° |
| 2026-04-22 18:00 | 41.46145 | -74.36960 | 7716 ft | 261 kts | 201° |
| 2026-04-22 18:00 | 41.44416 | -74.37697 | 7422 ft | 260 kts | 202° |
| 2026-04-22 18:01 | 41.42698 | -74.38433 | 7139 ft | 259 kts | 201° |
| 2026-04-22 18:01 | 41.40948 | -74.39186 | 6955 ft | 272 kts | 202° |
| 2026-04-22 18:01 | 41.39128 | -74.39972 | 6838 ft | 276 kts | 201° |
| 2026-04-22 18:01 | 41.37301 | -74.40756 | 6730 ft | 276 kts | 201° |
| 2026-04-22 18:02 | 41.35471 | -74.41541 | 6625 ft | 275 kts | 201° |
| 2026-04-22 18:02 | 41.33651 | -74.42321 | 6529 ft | 275 kts | 201° |
| 2026-04-22 18:02 | 41.31831 | -74.43102 | 6430 ft | 274 kts | 201° |
| 2026-04-22 18:02 | 41.30020 | -74.43880 | 6329 ft | 274 kts | 201° |
| 2026-04-22 18:03 | 41.28210 | -74.44656 | 6246 ft | 273 kts | 201° |
| 2026-04-22 18:03 | 41.26401 | -74.45428 | 6154 ft | 273 kts | 200° |
| 2026-04-22 18:03 | 41.24544 | -74.45856 | 6061 ft | 277 kts | 184° |
| 2026-04-22 18:03 | 41.22634 | -74.45463 | 5918 ft | 282 kts | 162° |
| 2026-04-22 18:04 | 41.20871 | -74.44326 | 5676 ft | 282 kts | 152° |
| 2026-04-22 18:04 | 41.19185 | -74.42996 | 5422 ft | 281 kts | 150° |
| 2026-04-22 18:04 | 41.17524 | -74.41639 | 5203 ft | 279 kts | 150° |
| 2026-04-22 18:04 | 41.15874 | -74.40285 | 5091 ft | 278 kts | 150° |
| 2026-04-22 18:05 | 41.14231 | -74.38937 | 4977 ft | 278 kts | 150° |
| 2026-04-22 18:05 | 41.12590 | -74.37596 | 4825 ft | 277 kts | 150° |
| 2026-04-22 18:05 | 41.10950 | -74.36258 | 4709 ft | 276 kts | 150° |
| 2026-04-22 18:05 | 41.09320 | -74.34925 | 4596 ft | 275 kts | 150° |
| 2026-04-22 18:06 | 41.07694 | -74.33606 | 4457 ft | 273 kts | 150° |
| 2026-04-22 18:06 | 41.06085 | -74.32290 | 4321 ft | 272 kts | 150° |
| 2026-04-22 18:06 | 41.04476 | -74.30977 | 4200 ft | 270 kts | 151° |
| 2026-04-22 18:06 | 41.02882 | -74.29675 | 4074 ft | 269 kts | 151° |
| 2026-04-22 18:07 | 41.01830 | -74.28818 | 3979 ft | 267 kts | 151° |
| 2026-04-22 18:07 | 40.99716 | -74.27100 | 3817 ft | 265 kts | 149° |
| 2026-04-22 18:07 | 40.98155 | -74.25829 | 3697 ft | 263 kts | 150° |
| 2026-04-22 18:07 | 40.96604 | -74.24567 | 3578 ft | 260 kts | 150° |
| 2026-04-22 18:08 | 40.95088 | -74.23337 | 3502 ft | 249 kts | 150° |
| 2026-04-22 18:08 | 40.93652 | -74.22171 | 3489 ft | 235 kts | 150° |
| 2026-04-22 18:08 | 40.92297 | -74.21069 | 3469 ft | 222 kts | 150° |
| 2026-04-22 18:08 | 40.91030 | -74.20041 | 3454 ft | 211 kts | 151° |
| 2026-04-22 18:09 | 40.89810 | -74.19052 | 3384 ft | 202 kts | 152° |
| 2026-04-22 18:09 | 40.88634 | -74.18100 | 3240 ft | 194 kts | 152° |
| 2026-04-22 18:09 | 40.87498 | -74.17182 | 3098 ft | 188 kts | 152° |
| 2026-04-22 18:09 | 40.86405 | -74.16300 | 2958 ft | 181 kts | 152° |
| 2026-04-22 18:10 | 40.85459 | -74.15547 | 2867 ft | 181 kts | 152° |
| 2026-04-22 18:10 | 40.84387 | -74.14680 | 2779 ft | 180 kts | 150° |
| 2026-04-22 18:10 | 40.83320 | -74.13817 | 2660 ft | 180 kts | 149° |
| 2026-04-22 18:10 | 40.82267 | -74.12962 | 2527 ft | 174 kts | 149° |
| 2026-04-22 18:11 | 40.81263 | -74.12146 | 2437 ft | 166 kts | 150° |
| 2026-04-22 18:11 | 40.80298 | -74.11366 | 2313 ft | 157 kts | 150° |
| 2026-04-22 18:11 | 40.79328 | -74.10779 | 2089 ft | 156 kts | 175° |
| 2026-04-22 18:11 | 40.78256 | -74.10924 | 1910 ft | 155 kts | 189° |
| 2026-04-22 18:12 | 40.77239 | -74.11410 | 1703 ft | 157 kts | 202° |
| 2026-04-22 18:12 | 40.76264 | -74.12039 | 1482 ft | 155 kts | 201° |
| 2026-04-22 18:12 | 40.75594 | -74.12428 | 1336 ft | 156 kts | 202° |
| 2026-04-22 18:12 | 40.74333 | -74.13242 | 1043 ft | 147 kts | 201° |
| 2026-04-22 18:13 | 40.73436 | -74.13812 | 838 ft | 138 kts | 202° |
| 2026-04-22 18:13 | 40.72598 | -74.14343 | 637 ft | 129 kts | 201° |
| 2026-04-22 18:13 | 40.71801 | -74.14846 | 470 ft | 126 kts | 201° |
| 2026-04-22 18:13 | 40.71014 | -74.15351 | 318 ft | 127 kts | 201° |
| 2026-04-22 18:14 | 40.70216 | -74.15863 | 141 ft | 128 kts | 204° |
| 2026-04-22 18:14 | 40.69416 | -74.16363 | 30 ft | 121 kts | 202° |
| 2026-04-22 18:14 | 40.68785 | -74.16773 | 30 ft | 81 kts | 206° |
| 2026-04-22 18:14 | 40.68409 | -74.17015 | 32 ft | 38 kts | 211° |
| 2026-04-22 18:15 | 40.68253 | -74.17202 | 29 ft | 19 kts | 232° |
| 2026-04-22 18:15 | 40.68254 | -74.17302 | 29 ft | 9 kts | 315° |
| 2026-04-22 18:15 | 40.68303 | -74.17299 | 32 ft | 8 kts | 26° |
| 2026-04-22 18:15 | 40.68361 | -74.17263 | 26 ft | 10 kts | 26° |
| 2026-04-22 18:16 | 40.68436 | -74.17214 | 27 ft | 16 kts | 26° |
| 2026-04-22 18:16 | 40.68547 | -74.17143 | 27 ft | 15 kts | 25° |
| 2026-04-22 18:16 | 40.68605 | -74.17128 | 26 ft | 8 kts | 334° |
| 2026-04-22 18:16 | 40.68640 | -74.17192 | 27 ft | 10 kts | 297° |
| 2026-04-22 18:17 | 40.68672 | -74.17279 | 28 ft | 12 kts | 296° |
| 2026-04-22 18:17 | 40.68711 | -74.17384 | 27 ft | 13 kts | 296° |
| 2026-04-22 18:17 | 40.68763 | -74.17440 | 29 ft | 10 kts | 4° |
| 2026-04-22 18:17 | 40.68836 | -74.17400 | 31 ft | 13 kts | 25° |
| 2026-04-22 18:18 | 40.68924 | -74.17346 | 28 ft | 15 kts | 26° |
| 2026-04-22 18:18 | 40.69001 | -74.17301 | 31 ft | 7 kts | 6° |
| 2026-04-22 18:18 | 40.69031 | -74.17328 | 30 ft | 6 kts | 309° |
| 2026-04-22 18:18 | 40.69044 | -74.17346 | 28 ft | 1 kts | 319° |
| 2026-04-22 18:19 | 40.69059 | -74.17348 | 29 ft | 3 kts | 359° |
| 2026-04-22 18:19 | 40.69087 | -74.17339 | 28 ft | 5 kts | 15° |
| 2026-04-22 18:19 | 40.69120 | -74.17348 | 30 ft | 3 kts | 329° |
| 2026-04-22 18:19 | 40.69133 | -74.17360 | 28 ft | 2 kts | 323° |
| 2026-04-22 18:20 | 40.69141 | -74.17368 | 28 ft | 1 kts | 323° |
| 2026-04-22 18:20 | 40.69145 | -74.17372 | 28 ft | 1 kts | 323° |
| 2026-04-22 18:20 | 40.69146 | -74.17372 | 28 ft | 0 kts | 323° |